createdAt,value
2018-07-27T00:01:23.896Z,96.30
2018-07-27T00:03:54.590Z,96.20
2018-07-27T00:06:27.344Z,96.60
2018-07-27T00:08:59.240Z,96.60
2018-07-27T00:11:30.968Z,96.60
2018-07-27T00:14:03.495Z,96.60
2018-07-27T00:16:35.137Z,96.60
2018-07-27T00:19:06.076Z,96.80
2018-07-27T00:21:38.050Z,97.20
2018-07-27T00:24:08.569Z,97.20
2018-07-27T00:26:39.290Z,97.20
2018-07-27T00:29:10.138Z,97.50
2018-07-27T00:31:41.530Z,97.80
2018-07-27T00:34:13.217Z,98.00
2018-07-27T00:36:44.124Z,97.80
2018-07-27T00:39:15.996Z,97.80
2018-07-27T00:41:53.885Z,97.90
2018-07-27T00:44:25.593Z,98.20
2018-07-27T00:46:59.246Z,98.30
2018-07-27T00:49:37.852Z,98.40
2018-07-27T00:52:11.460Z,98.70
2018-07-27T00:54:43.993Z,98.40
2018-07-27T00:57:14.268Z,98.50
2018-07-27T00:59:45.557Z,98.70
2018-07-27T01:02:19.371Z,99.00
2018-07-27T01:04:50.464Z,99.00
2018-07-27T01:09:54.392Z,99.40
2018-07-27T01:14:57.961Z,99.80
2018-07-27T01:17:29.260Z,99.90
2018-07-27T01:22:32.514Z,99.90
2018-07-27T01:27:35.205Z,99.90
2018-07-27T01:30:10.870Z,99.90
2018-07-27T01:32:40.940Z,99.90
2018-07-27T01:35:11.510Z,99.90
2018-07-27T01:37:42.536Z,99.90
2018-07-27T01:40:14.097Z,99.90
2018-07-27T01:42:46.149Z,99.90
2018-07-27T01:45:18.808Z,99.90
2018-07-27T01:47:52.931Z,99.90
2018-07-27T01:50:24.948Z,99.90
2018-07-27T01:53:00.193Z,99.90
2018-07-27T01:55:31.516Z,99.90
2018-07-27T01:58:03.437Z,99.90
2018-07-27T02:03:08.196Z,99.90
2018-07-27T02:05:43.838Z,99.90
2018-07-27T02:08:16.656Z,99.90
2018-07-27T02:10:47.920Z,99.90
2018-07-27T02:13:19.760Z,99.90
2018-07-27T02:15:49.477Z,99.90
2018-07-27T02:18:18.979Z,99.90
2018-07-27T02:20:50.289Z,99.90
2018-07-27T02:25:54.640Z,99.90
2018-07-27T02:28:23.727Z,99.90
2018-07-27T02:30:53.517Z,99.90
2018-07-27T02:33:24.721Z,99.90
2018-07-27T02:35:55.828Z,99.90
2018-07-27T02:38:26.492Z,99.90
2018-07-27T02:40:59.245Z,99.90
2018-07-27T02:43:34.862Z,99.90
2018-07-27T02:46:09.076Z,99.90
2018-07-27T02:48:40.124Z,99.90
2018-07-27T02:51:15.237Z,99.90
2018-07-27T02:53:47.615Z,99.90
2018-07-27T02:56:23.499Z,99.90
2018-07-27T03:04:19.285Z,99.90
2018-07-27T03:07:00.936Z,99.90
2018-07-27T03:09:47.099Z,99.90
2018-07-27T03:12:23.108Z,99.90
2018-07-27T03:15:03.137Z,99.90
2018-07-27T03:17:36.255Z,99.90
2018-07-27T03:22:51.862Z,99.90
2018-07-27T03:25:25.657Z,99.90
2018-07-27T03:32:59.872Z,99.90
2018-07-27T03:35:29.940Z,99.90
2018-07-27T03:38:01.752Z,99.90
2018-07-27T03:40:35.608Z,99.90
2018-07-27T03:43:07.054Z,99.90
2018-07-27T03:45:43.902Z,99.90
2018-07-27T03:48:14.748Z,99.90
2018-07-27T03:50:44.756Z,99.90
2018-07-27T03:53:14.340Z,99.90
2018-07-27T03:55:44.132Z,99.90
2018-07-27T03:58:13.904Z,99.90
2018-07-27T04:00:43.953Z,99.90
2018-07-27T04:03:13.079Z,99.90
2018-07-27T04:05:43.382Z,99.90
2018-07-27T04:08:12.688Z,99.90
2018-07-27T04:10:42.119Z,99.90
2018-07-27T04:13:11.908Z,99.90
2018-07-27T04:15:42.268Z,99.90
2018-07-27T04:18:12.170Z,99.90
2018-07-27T04:20:43.288Z,99.90
2018-07-27T04:23:12.797Z,99.90
2018-07-27T04:25:44.109Z,99.90
2018-07-27T04:28:13.895Z,99.90
2018-07-27T04:30:43.625Z,99.90
2018-07-27T04:33:14.218Z,99.90
2018-07-27T04:35:43.634Z,99.90
2018-07-27T04:38:14.403Z,99.90
2018-07-27T04:43:13.296Z,99.90
2018-07-27T04:45:44.319Z,99.90
2018-07-27T04:48:14.631Z,99.90
2018-07-27T04:50:48.610Z,99.90
2018-07-27T04:53:17.736Z,99.90
2018-07-27T04:55:49.126Z,99.90
2018-07-27T05:00:49.753Z,99.90
2018-07-27T05:03:21.460Z,99.90
2018-07-27T05:05:52.233Z,99.90
2018-07-27T05:08:24.000Z,99.90
2018-07-27T05:10:56.437Z,99.90
2018-07-27T05:13:26.380Z,99.90
2018-07-27T05:15:56.572Z,99.90
2018-07-27T05:18:30.377Z,99.90
2018-07-27T05:21:00.711Z,99.90
2018-07-27T05:23:37.538Z,99.90
2018-07-27T05:28:37.987Z,99.90
2018-07-27T05:31:08.289Z,99.90
2018-07-27T05:33:41.748Z,99.90
2018-07-27T05:36:15.195Z,99.90
2018-07-27T05:38:45.418Z,99.90
2018-07-27T05:41:19.906Z,99.90
2018-07-27T05:43:50.881Z,99.90
2018-07-27T05:46:22.800Z,99.90
2018-07-27T05:48:54.356Z,99.90
2018-07-27T05:51:24.764Z,99.90
2018-07-27T05:53:54.001Z,99.90
2018-07-27T05:56:26.364Z,99.90
2018-07-27T05:58:57.629Z,99.90
2018-07-27T06:01:30.513Z,99.60
2018-07-27T06:04:01.769Z,99.50
2018-07-27T06:06:41.077Z,99.30
2018-07-27T06:09:12.603Z,99.30
2018-07-27T06:11:47.256Z,98.90
2018-07-27T06:14:22.207Z,98.10
2018-07-27T06:16:56.693Z,97.80
2018-07-27T06:19:29.404Z,97.70
2018-07-27T06:22:04.812Z,97.70
2018-07-27T06:24:55.826Z,97.40
2018-07-27T06:27:26.908Z,97.40
2018-07-27T06:29:59.617Z,96.60
2018-07-27T06:32:29.127Z,96.30
2018-07-27T06:35:03.095Z,94.30
2018-07-27T06:37:36.437Z,92.40
2018-07-27T06:40:08.157Z,91.70
2018-07-27T06:42:40.746Z,91.40
2018-07-27T06:45:12.320Z,91.00
2018-07-27T06:47:42.905Z,90.00
2018-07-27T06:50:17.120Z,89.90
2018-07-27T06:52:48.805Z,88.30
2018-07-27T06:55:20.512Z,90.20
2018-07-27T06:57:50.781Z,87.90
2018-07-27T07:00:21.843Z,83.20
2018-07-27T07:05:25.424Z,78.60
2018-07-27T07:07:57.154Z,76.50
2018-07-27T07:10:31.355Z,77.50
2018-07-27T07:13:02.422Z,76.50
2018-07-27T07:15:33.112Z,76.10
2018-07-27T07:18:06.451Z,76.20
2018-07-27T07:20:36.391Z,74.30
2018-07-27T07:23:07.717Z,73.70
2018-07-27T07:25:39.068Z,74.30
2018-07-27T07:28:09.408Z,69.90
2018-07-27T07:30:45.345Z,69.10
2018-07-27T07:33:14.903Z,67.80
2018-07-27T07:35:46.820Z,65.00
2018-07-27T07:38:16.821Z,61.50
2018-07-27T07:40:50.352Z,59.00
2018-07-27T07:43:21.472Z,56.60
2018-07-27T07:45:51.711Z,56.00
2018-07-27T07:48:22.552Z,54.40
2018-07-27T07:50:52.539Z,54.10
2018-07-27T07:53:24.954Z,54.60
2018-07-27T07:55:56.156Z,58.50
2018-07-27T07:58:27.204Z,55.10
2018-07-27T08:00:57.600Z,48.80
2018-07-27T08:03:29.285Z,43.00
2018-07-27T08:05:59.869Z,41.30
2018-07-27T08:11:02.638Z,37.60
2018-07-27T08:13:35.497Z,34.80
2018-07-27T08:16:07.165Z,34.40
2018-07-27T08:21:10.885Z,31.40
2018-07-27T08:27:00.030Z,31.40
2018-07-27T08:29:34.497Z,33.80
2018-07-27T08:32:04.937Z,36.80
2018-07-27T08:34:34.725Z,36.20
2018-07-27T08:37:06.474Z,33.20
2018-07-27T08:39:40.143Z,34.20
2018-07-27T08:44:41.368Z,34.10
2018-07-27T08:47:11.890Z,32.00
2018-07-27T08:49:42.305Z,31.10
2018-07-27T08:52:13.958Z,29.20
2018-07-27T08:54:45.308Z,29.40
2018-07-27T08:57:20.645Z,27.70
2018-07-27T08:59:52.432Z,28.30
2018-07-27T09:02:22.642Z,29.90
2018-07-27T09:04:53.113Z,29.60
2018-07-27T09:07:23.398Z,30.60
2018-07-27T09:09:54.534Z,29.80
2018-07-27T09:12:27.949Z,27.90
2018-07-27T09:14:58.780Z,27.70
2018-07-27T09:17:31.237Z,26.50
2018-07-27T09:20:01.562Z,24.70
2018-07-27T09:25:04.940Z,24.60
2018-07-27T09:27:34.678Z,24.70
2018-07-27T09:30:04.273Z,23.90
2018-07-27T09:32:35.026Z,26.30
2018-07-27T09:35:12.957Z,26.60
2018-07-27T09:37:43.704Z,27.60
2018-07-27T09:40:20.194Z,27.80
2018-07-27T09:42:52.368Z,27.20
2018-07-27T09:47:51.721Z,27.70
2018-07-27T09:50:23.753Z,27.80
2018-07-27T09:53:00.357Z,28.00
2018-07-27T09:55:31.913Z,28.10
2018-07-27T09:58:01.068Z,28.00
2018-07-27T10:00:46.378Z,27.50
2018-07-27T10:03:20.237Z,26.60
2018-07-27T10:05:50.103Z,26.10
2018-07-27T10:08:19.610Z,25.60
2018-07-27T10:10:49.604Z,25.10
2018-07-27T10:13:20.260Z,24.70
2018-07-27T10:15:52.632Z,24.90
2018-07-27T10:18:23.670Z,25.00
2018-07-27T10:21:01.238Z,25.90
2018-07-27T10:26:07.137Z,27.00
2018-07-27T10:28:40.023Z,25.90
2018-07-27T10:31:10.780Z,24.80
2018-07-27T10:33:44.441Z,26.10
2018-07-27T10:36:19.835Z,26.30
2018-07-27T10:38:50.924Z,27.20
2018-07-27T10:43:56.336Z,25.90
2018-07-27T10:46:25.481Z,25.30
2018-07-27T10:48:59.280Z,25.70
2018-07-27T10:51:30.204Z,25.60
2018-07-27T11:01:44.399Z,26.30
2018-07-27T11:04:15.704Z,25.70
2018-07-27T11:06:45.892Z,27.40
2018-07-27T11:09:16.937Z,27.40
2018-07-27T11:11:48.692Z,26.80
2018-07-27T11:16:52.031Z,27.20
2018-07-27T11:19:21.252Z,26.20
2018-07-27T11:21:51.716Z,25.40
2018-07-27T11:26:54.744Z,26.50
2018-07-27T11:29:28.979Z,26.00
2018-07-27T11:31:58.781Z,27.20
2018-07-27T11:34:28.776Z,26.20
2018-07-27T11:39:27.581Z,26.70
2018-07-27T11:41:58.152Z,25.10
2018-07-27T11:44:27.628Z,24.10
2018-07-27T11:46:59.976Z,23.90
2018-07-27T11:49:31.035Z,23.70
2018-07-27T11:52:07.797Z,24.90
2018-07-27T11:54:42.005Z,25.00
2018-07-27T11:57:13.361Z,25.30
2018-07-27T11:59:47.652Z,25.50
2018-07-27T12:05:12.001Z,27.60
2018-07-27T12:10:35.048Z,25.20
2018-07-27T12:13:14.322Z,24.70
2018-07-27T12:15:53.620Z,25.30
2018-07-27T12:18:24.584Z,26.20
2018-07-27T12:21:00.925Z,27.20
2018-07-27T12:26:24.940Z,25.40
2018-07-27T12:31:32.404Z,25.50
2018-07-27T12:34:10.705Z,24.70
2018-07-27T12:36:43.936Z,24.90
2018-07-27T12:39:19.860Z,24.50
2018-07-27T12:41:51.469Z,23.90
2018-07-27T12:46:59.597Z,25.50
2018-07-27T12:52:02.637Z,24.10
2018-07-27T12:54:36.828Z,24.00
2018-07-27T12:57:05.908Z,23.60
2018-07-27T12:59:35.251Z,24.10
2018-07-27T13:02:04.424Z,25.20
2018-07-27T13:04:33.787Z,25.70
2018-07-27T13:07:02.874Z,26.80
2018-07-27T13:09:32.289Z,27.60
2018-07-27T13:12:01.397Z,26.60
2018-07-27T13:17:00.907Z,25.00
2018-07-27T13:19:30.031Z,23.60
2018-07-27T13:26:59.207Z,23.50
2018-07-27T13:29:29.153Z,24.00
2018-07-27T13:32:00.617Z,24.20
2018-07-27T13:37:09.016Z,25.50
2018-07-27T13:39:39.287Z,24.50
2018-07-27T13:42:11.028Z,24.80
2018-07-27T13:47:11.052Z,23.40
2018-07-27T13:49:41.356Z,23.60
2018-07-27T13:52:12.218Z,24.70
2018-07-27T13:54:43.625Z,25.40
2018-07-27T13:57:14.612Z,24.90
2018-07-27T14:02:19.927Z,24.50
2018-07-27T14:04:55.264Z,25.90
2018-07-27T14:07:29.885Z,25.90
2018-07-27T14:10:06.696Z,25.00
2018-07-27T14:12:40.030Z,25.70
2018-07-27T14:15:10.716Z,25.90
2018-07-27T14:17:40.965Z,26.30
2018-07-27T14:20:16.604Z,26.70
2018-07-27T14:25:18.996Z,26.60
2018-07-27T14:30:23.823Z,26.10
2018-07-27T14:32:57.865Z,26.10
2018-07-27T14:35:28.784Z,25.60
2018-07-27T14:37:59.101Z,25.40
2018-07-27T14:40:29.300Z,25.50
2018-07-27T14:43:00.093Z,26.60
2018-07-27T14:48:04.268Z,26.80
2018-07-27T14:50:37.689Z,25.80
2018-07-27T14:53:12.012Z,25.30
2018-07-27T14:55:41.789Z,24.80
2018-07-27T14:58:12.453Z,24.20
2018-07-27T15:00:44.716Z,24.40
2018-07-27T15:03:17.818Z,24.20
2018-07-27T15:05:47.034Z,25.10
2018-07-27T15:08:18.841Z,25.40
2018-07-27T15:10:49.111Z,25.30
2018-07-27T15:13:20.392Z,25.50
2018-07-27T15:15:52.784Z,25.40
2018-07-27T15:18:32.817Z,25.10
2018-07-27T15:21:05.845Z,24.60
2018-07-27T15:23:37.468Z,26.00
2018-07-27T15:26:07.946Z,25.00
2018-07-27T15:28:42.712Z,24.80
2018-07-27T15:31:12.564Z,25.30
2018-07-27T15:33:44.329Z,26.80
2018-07-27T15:36:15.655Z,26.20
2018-07-27T15:38:48.704Z,26.40
2018-07-27T15:41:19.130Z,27.00
2018-07-27T15:43:52.777Z,27.10
2018-07-27T15:46:24.581Z,27.40
2018-07-27T15:49:08.976Z,27.70
2018-07-27T15:51:43.212Z,28.60
2018-07-27T15:54:14.692Z,28.30
2018-07-27T15:56:45.725Z,28.30
2018-07-27T15:59:15.927Z,28.60
2018-07-27T16:01:50.290Z,28.30
2018-07-27T16:04:19.547Z,28.20
2018-07-27T16:06:51.437Z,28.40
2018-07-27T16:09:21.916Z,28.90
2018-07-27T16:11:52.785Z,28.20
2018-07-27T16:14:24.360Z,29.30
2018-07-27T16:16:57.969Z,28.80
2018-07-27T16:19:33.336Z,28.60
2018-07-27T16:22:07.161Z,30.70
2018-07-27T16:24:38.830Z,29.30
2018-07-27T16:27:15.254Z,29.30
2018-07-27T16:29:49.412Z,29.10
2018-07-27T16:32:24.574Z,29.20
2018-07-27T16:34:55.493Z,28.90
2018-07-27T16:37:27.173Z,28.70
2018-07-27T16:42:34.400Z,28.70
2018-07-27T16:45:15.121Z,28.30
2018-07-27T16:47:50.674Z,28.70
2018-07-27T16:50:22.557Z,30.00
2018-07-27T16:52:53.071Z,29.30
2018-07-27T16:55:24.410Z,29.90
2018-07-27T16:57:58.260Z,29.20
2018-07-27T17:00:28.341Z,28.60
2018-07-27T17:03:01.034Z,29.60
2018-07-27T17:05:31.864Z,28.80
2018-07-27T17:08:02.896Z,29.20
2018-07-27T17:10:32.028Z,30.50
2018-07-27T17:13:02.380Z,31.00
2018-07-27T17:15:32.041Z,30.40
2018-07-27T17:18:01.455Z,29.90
2018-07-27T17:20:31.066Z,31.90
2018-07-27T17:23:00.216Z,34.10
2018-07-27T17:25:34.788Z,34.70
2018-07-27T17:28:06.154Z,31.30
2018-07-27T17:30:37.859Z,34.40
2018-07-27T17:33:11.427Z,35.50
2018-07-27T17:38:17.341Z,35.80
2018-07-27T17:40:47.620Z,35.40
2018-07-27T17:48:19.801Z,36.90
2018-07-27T17:50:51.126Z,39.50
2018-07-27T17:53:24.421Z,42.50
2018-07-27T17:55:57.502Z,43.00
2018-07-27T17:58:28.232Z,43.60
2018-07-27T18:01:00.101Z,43.40
2018-07-27T18:03:30.513Z,44.10
2018-07-27T18:06:04.121Z,40.80
2018-07-27T18:08:38.158Z,43.20
2018-07-27T18:11:09.928Z,45.40
2018-07-27T18:13:42.088Z,46.20
2018-07-27T18:16:14.996Z,46.60
2018-07-27T18:21:20.532Z,48.10
2018-07-27T18:23:50.233Z,49.10
2018-07-27T18:26:22.385Z,50.10
2018-07-27T18:28:53.528Z,50.60
2018-07-27T18:31:26.210Z,50.60
2018-07-27T18:33:58.062Z,51.00
2018-07-27T18:36:29.112Z,51.50
2018-07-27T18:39:00.921Z,51.90
2018-07-27T18:41:33.880Z,52.70
2018-07-27T18:44:06.229Z,53.90
2018-07-27T18:46:42.060Z,54.70
2018-07-27T18:51:45.641Z,55.70
2018-07-27T18:54:19.969Z,56.30
2018-07-27T18:56:55.783Z,56.20
2018-07-27T18:59:25.173Z,57.60
2018-07-27T19:02:00.211Z,58.50
2018-07-27T19:04:29.308Z,58.80
2018-07-27T19:06:58.922Z,59.50
2018-07-27T19:09:28.757Z,60.40
2018-07-27T19:11:59.265Z,61.50
2018-07-27T19:14:29.585Z,62.40
2018-07-27T19:17:02.892Z,62.80
2018-07-27T19:19:33.380Z,63.70
2018-07-27T19:22:05.433Z,64.00
2018-07-27T19:24:35.075Z,63.20
2018-07-27T19:27:06.004Z,64.30
2018-07-27T19:29:41.052Z,63.90
2018-07-27T19:32:21.062Z,65.20
2018-07-27T19:37:25.404Z,66.50
2018-07-27T19:42:33.749Z,67.90
2018-07-27T19:45:07.990Z,70.80
2018-07-27T19:47:39.464Z,75.00
2018-07-27T19:50:10.537Z,76.00
2018-07-27T19:52:44.312Z,76.50
2018-07-27T19:55:14.264Z,76.50
2018-07-27T19:57:45.857Z,77.10
2018-07-27T20:00:15.340Z,77.30
2018-07-27T20:02:45.757Z,78.30
2018-07-27T20:07:46.157Z,78.80
2018-07-27T20:10:16.636Z,77.60
2018-07-27T20:12:47.033Z,76.90
2018-07-27T20:15:16.721Z,75.80
2018-07-27T20:17:46.856Z,75.90
2018-07-27T20:20:18.704Z,75.80
2018-07-27T20:27:47.456Z,76.90
2018-07-27T20:32:50.324Z,76.30
2018-07-27T20:35:23.744Z,73.90
2018-07-27T20:37:56.144Z,74.50
2018-07-27T20:40:27.131Z,75.40
2018-07-27T20:42:57.088Z,77.00
2018-07-27T20:47:58.348Z,78.50
2018-07-27T20:50:29.000Z,78.60
2018-07-27T20:53:00.589Z,79.50
2018-07-27T20:55:30.129Z,79.60
2018-07-27T20:58:03.218Z,79.60
2018-07-27T21:00:36.380Z,79.30
2018-07-27T21:03:08.235Z,78.50
2018-07-27T21:05:43.532Z,80.40
2018-07-27T21:08:23.375Z,80.70
2018-07-27T21:16:35.025Z,84.60
2018-07-27T21:19:15.375Z,84.40
2018-07-27T21:21:57.564Z,85.40
2018-07-27T21:24:34.236Z,84.50
2018-07-27T21:29:48.707Z,83.70
2018-07-27T21:35:08.209Z,84.70
2018-07-27T21:40:21.848Z,82.80
2018-07-27T21:45:29.157Z,82.80
2018-07-27T21:48:01.872Z,85.60
2018-07-27T21:50:35.736Z,86.00
2018-07-27T21:53:08.843Z,86.70
2018-07-27T21:58:10.103Z,87.10
2018-07-27T22:03:09.017Z,88.10
2018-07-27T22:05:39.292Z,88.80
2018-07-27T22:08:14.288Z,89.70
2018-07-27T22:10:45.576Z,89.50
2018-07-27T22:13:14.753Z,90.30
2018-07-27T22:15:43.876Z,88.80
2018-07-27T22:18:13.465Z,88.90
2018-07-27T22:20:42.584Z,87.80
2018-07-27T22:23:12.212Z,89.00
2018-07-27T22:25:41.331Z,90.60
2018-07-27T22:30:41.011Z,90.20
2018-07-27T22:33:10.131Z,90.80
2018-07-27T22:35:39.292Z,90.70
2018-07-27T22:38:09.875Z,91.20
2018-07-27T22:43:09.385Z,92.00
2018-07-27T22:45:39.176Z,91.40
2018-07-27T22:48:08.988Z,91.40
2018-07-27T22:50:38.732Z,90.80
2018-07-27T22:55:38.140Z,90.20
2018-07-27T22:58:08.582Z,90.00
2018-07-27T23:03:08.917Z,89.60
2018-07-27T23:05:45.057Z,90.30
2018-07-27T23:08:16.018Z,91.20
2018-07-27T23:20:49.484Z,91.40
2018-07-27T23:28:20.456Z,91.90
2018-07-27T23:30:51.064Z,91.90
2018-07-27T23:33:21.054Z,92.00
2018-07-27T23:35:51.549Z,92.10
2018-07-27T23:45:56.609Z,92.40
2018-07-27T23:48:26.804Z,92.60
2018-07-27T23:51:00.083Z,92.70
2018-07-27T23:53:29.996Z,92.90
2018-07-27T23:56:00.356Z,93.20
2018-07-27T23:58:31.921Z,93.30
